Laurel, New York
Current Conditions -  °F | °C
As of 8:53 AM on Monday 26 Jan 2015 (Local Time) from KFOK Reporting Station
Light Snow Light Snow  
Wind Chill: 13°   Ceiling: 3900
Heat Index: 25°   Visibility: 4mi
Dew Point: 15°   Wind: 14mph
Humidity: 66%   Direction: 50°NE
Pressure: 30.04"   Gusts: NA
Location:  40.98°N, 72.55°W
Report Text: KFOK 261353Z 05012KT 4SM -SN BKN039 OVC055 M04/M09 A3004 RMK AO2 UPB17E24SNE17B25 SLP172 P0000 T10391094
Loading
Personal Weather Stations






























Interactive Weather Map New forecast layout! Learn more

10-Day Weather Forecast

Advertisements
Track Severe Weather on mobile